aviador You're here:

KRCM Decoded Metar

in _UNIDENTIFIED
Report Time2017-08-16 14:55:00
UTC Time2017-08-16 15:04:44
Flight Rules vfr VFR
Wind130° at 05 kt
W.Decomp.*RWY 13: 5.0 kt HW 0.6 kt LCW
RWY 18: 2.7 kt HW 4.2 kt LCW
W.Rank130° ranks 9
Current wind is below 130° avg. (6.6)
Visibility9999 m
Phenomena:N/A
Clouds:Scattered 060 Hf
Broken 080 Hf
Broken 090 Hf
Expected CloudBase > 400 ft AGL from Temp-Dew spread
Ceiling8,000 ft
Temp23°C (ISA +10)
Dew Point22°C (94% RH)
QNH1012 hPa
Density Alt2,300 ft
Elevation801 ft
Report Wrong Elevation
Raw Report
KRCM 161455Z AUTO 13005KT 10SM SCT060 BKN080 BKN090 23/22 A2987
RMK AO2 LTG DSNT E=

Extra information for KRCM:More info

Metar Taf Metar & Taf Last 4 Metars F.Rules Stats Wind Profile Meteogram Temp Stats Metar ALERT Operation Metar Decoded Social comments